This is the latest recevied weather packets stored in our database for station/object CA3EAP-13. If no packets are shown the sender has not sent any weather packets the latest 10 day(s).
| Time | Temp. | Humidity | Pressure | Rain* | Wind** | Luminosity | Snow |
|---|---|---|---|---|---|---|---|
| 1777658104 | 17.22° C | 66% | 1018.3 hPa | - | - | - | - |
| 1777657504 | 17.22° C | 67% | 1018.3 hPa | - | - | - | - |
| 1777656904 | 17.78° C | 64% | 1018.1 hPa | - | - | - | - |
| 1777656304 | 17.78° C | 64% | 1018 hPa | - | - | - | - |
| 1777655704 | 17.78° C | 66% | 1018.2 hPa | - | - | - | - |
| 1777655105 | 17.78° C | 65% | 1018.3 hPa | - | - | - | - |
| 1777654504 | 17.22° C | 68% | 1018.6 hPa | - | - | - | - |
| 1777653904 | 16.67° C | 68% | 1019.1 hPa | - | - | - | - |
| 1777653304 | 17.22° C | 68% | 1019 hPa | - | - | - | - |
| 1777652705 | 16.11° C | 71% | 1019.6 hPa | - | - | - | - |
| 1777652105 | 16.11° C | 71% | 1019.7 hPa | - | - | - | - |
| 1777651504 | 15.56° C | 76% | 1020 hPa | - | - | - | - |
| 1777650904 | 15.56° C | 75% | 1019.8 hPa | - | - | - | - |
| 1777650304 | 15° C | 76% | 1020 hPa | - | - | - | - |
| 1777649704 | 15° C | 77% | 1019.7 hPa | - | - | - | - |
| 1777649104 | 15.56° C | 75% | 1019.6 hPa | - | - | - | - |
| 1777648504 | 15.56° C | 74% | 1019.3 hPa | - | - | - | - |
| 1777647904 | 15.56° C | 74% | 1019.3 hPa | - | - | - | - |
| 1777647304 | 15° C | 76% | 1019.6 hPa | - | - | - | - |
| 1777646704 | 15.56° C | 75% | 1019.5 hPa | - | - | - | - |
| 1777646104 | 15.56° C | 76% | 1019.6 hPa | - | - | - | - |
| 1777645504 | 15° C | 79% | 1019.8 hPa | - | - | - | - |
| 1777644904 | 14.44° C | 79% | 1019.9 hPa | - | - | - | - |
| 1777644304 | 15° C | 79% | 1019.8 hPa | - | - | - | - |
| 1777643704 | 14.44° C | 82% | 1019.8 hPa | - | - | - | - |
* Rain since midnight (hover to see other rain measurements)
** Current wind speed in m/s (hover to see current wind gust speed)